Time;durP1;ratioP1;P1;durP2;ratioP2;P2;SDS_P1;SDS_P2;PMS_P1;PMS_P2;Temp;Humidity;BMP_temperature;BMP_pressure;BME280_temperature;BME280_humidity;BME280_pressure;Samples;Min_cycle;Max_cycle;Signal;HPM_P1;HPM_P2
2023/01/15 00:01:26;;;;;;;10.13;1.80;;;6.30;99.90;;;;;;5116873;28;20122;-42
2023/01/15 00:03:54;;;;;;;11.75;2.00;;;6.30;5.00;;;;;;5133878;27;20082;-42
2023/01/15 00:06:21;;;;;;;8.02;1.50;;;6.20;47.80;;;;;;5132738;27;20499;-42
2023/01/15 00:08:47;;;;;;;14.32;2.33;;;6.20;1.00;;;;;;5134102;27;20496;-42
2023/01/15 00:11:13;;;;;;;9.52;2.10;;;6.20;99.90;;;;;;5117476;27;20047;-42
2023/01/15 00:13:39;;;;;;;6.88;1.98;;;6.20;99.90;;;;;;5134666;27;20055;-42
2023/01/15 00:16:07;;;;;;;12.30;2.25;;;6.30;1.00;;;;;;5116598;28;20074;-42
2023/01/15 00:18:33;;;;;;;8.80;1.63;;;6.30;1.00;;;;;;5115329;28;20039;-42
2023/01/15 00:21:03;;;;;;;12.07;1.67;;;6.30;99.90;;;;;;5134481;28;20130;-42
2023/01/15 00:29:02;;;;;;;11.70;1.58;;;6.40;99.90;;;;;;5134823;28;20054;-42
2023/01/15 00:31:29;;;;;;;16.35;2.40;;;6.40;1.00;;;;;;5133564;28;20035;-42
2023/01/15 00:33:55;;;;;;;8.27;1.63;;;6.40;1.00;;;;;;5116208;28;20051;-42
2023/01/15 00:36:21;;;;;;;10.32;2.13;;;6.40;99.90;;;;;;5134458;28;20053;-42
2023/01/15 00:38:47;;;;;;;15.20;2.85;;;6.40;99.90;;;;;;5115252;28;20065;-42
2023/01/15 00:41:13;;;;;;;12.52;2.50;;;6.30;1.00;;;;;;5115659;28;20039;-42
2023/01/15 00:43:38;;;;;;;13.18;1.58;;;6.30;1.00;;;;;;5134703;28;20047;-42
2023/01/15 00:46:04;;;;;;;8.88;1.50;;;6.40;1.00;;;;;;5134374;28;20054;-42
2023/01/15 00:48:31;;;;;;;12.30;1.90;;;6.40;99.90;;;;;;5135180;28;20043;-42
2023/01/15 00:50:57;;;;;;;11.60;2.38;;;6.40;99.90;;;;;;5116057;28;20035;-43
2023/01/15 00:53:23;;;;;;;15.13;3.00;;;6.40;99.90;;;;;;5133234;28;20047;-43
2023/01/15 00:55:48;;;;;;;11.38;1.85;;;6.40;99.90;;;;;;5117003;28;20049;-42
2023/01/15 00:58:14;;;;;;;5.40;1.33;;;6.40;86.60;;;;;;5114923;28;20043;-42
2023/01/15 01:00:40;;;;;;;13.20;2.70;;;6.40;1.00;;;;;;5134159;28;20047;-42
2023/01/15 01:03:06;;;;;;;12.55;2.00;;;6.40;99.90;;;;;;5099127;28;20039;-42
2023/01/15 01:05:32;;;;;;;11.93;1.95;;;6.40;99.90;;;;;;5132933;28;20043;-43
2023/01/15 01:07:59;;;;;;;10.45;2.45;;;6.30;99.90;;;;;;5119011;27;20057;-43
2023/01/15 01:10:25;;;;;;;8.13;1.48;;;6.30;99.90;;;;;;5119957;27;20054;-42
2023/01/15 01:12:51;;;;;;;8.60;1.63;;;6.30;99.90;;;;;;5136864;27;20043;-43
2023/01/15 01:15:21;;;;;;;14.15;2.75;;;6.30;99.90;;;;;;5138201;27;20092;-43
2023/01/15 01:17:47;;;;;;;15.38;2.22;;;6.30;99.90;;;;;;5137856;27;20040;-43
2023/01/15 01:20:15;;;;;;;7.85;1.60;;;6.30;99.90;;;;;;5137793;27;20504;-43
2023/01/15 01:22:40;;;;;;;8.27;1.75;;;6.30;99.90;;;;;;5137734;27;20046;-43
2023/01/15 01:25:07;;;;;;;9.25;1.98;;;6.20;99.90;;;;;;5137171;27;20046;-43
2023/01/15 01:27:33;;;;;;;19.63;2.72;;;6.20;99.90;;;;;;5119449;27;20130;-43
2023/01/15 01:29:58;;;;;;;12.80;2.10;;;6.30;99.90;;;;;;5119303;27;20137;-43
2023/01/15 01:32:24;;;;;;;11.35;1.88;;;6.30;99.90;;;;;;5137577;27;20096;-43
2023/01/15 01:34:50;;;;;;;12.45;1.95;;;6.20;99.90;;;;;;5137217;27;20505;-43
2023/01/15 01:37:15;;;;;;;14.02;2.38;;;6.30;99.90;;;;;;5138258;27;20086;-43
2023/01/15 01:39:41;;;;;;;14.32;2.53;;;6.30;99.90;;;;;;5136311;27;20134;-43
2023/01/15 01:42:12;;;;;;;8.30;1.45;;;6.30;99.90;;;;;;5137402;27;20059;-43
2023/01/15 01:44:38;;;;;;;16.15;1.73;;;6.30;99.90;;;;;;5138005;27;20076;-43
2023/01/15 01:47:24;;;;;;;17.10;2.63;;;6.30;99.90;;;;;;5136866;27;20047;-43
2023/01/15 01:49:58;;;;;;;9.13;1.77;;;6.30;99.90;;;;;;5116601;28;20501;-43
2023/01/15 01:52:32;;;;;;;11.38;1.95;;;6.30;1.00;;;;;;5085125;27;20059;-42
2023/01/15 01:54:59;;;;;;;10.93;1.77;;;6.30;70.50;;;;;;5136040;27;20039;-42
2023/01/15 01:57:25;;;;;;;11.80;2.08;;;6.30;99.90;;;;;;5135962;27;20051;-43
2023/01/15 01:59:51;;;;;;;15.02;1.90;;;6.30;99.90;;;;;;5118728;27;20095;-43
2023/01/15 02:02:20;;;;;;;12.63;2.05;;;6.30;1.00;;;;;;5136936;27;20086;-43
2023/01/15 02:04:46;;;;;;;12.07;2.30;;;6.30;99.90;;;;;;5137011;27;20084;-43
2023/01/15 02:07:12;;;;;;;15.48;2.63;;;6.30;99.90;;;;;;5135618;27;20516;-43
2023/01/15 02:09:38;;;;;;;13.70;2.38;;;6.40;1.00;;;;;;5137375;27;20055;-43
2023/01/15 02:12:31;;;;;;;9.73;2.05;;;6.30;1.00;;;;;;5118988;27;20138;-42
2023/01/15 02:15:38;;;;;;;15.70;3.03;;;6.30;99.90;;;;;;5135310;27;20396;-43
2023/01/15 02:18:18;;;;;;;17.23;2.30;;;6.30;1.00;;;;;;5095683;27;20188;-43
2023/01/15 02:20:52;;;;;;;16.58;2.50;;;6.30;1.00;;;;;;5136579;27;20043;-43
2023/01/15 02:23:41;;;;;;;12.15;2.80;;;6.10;25.70;;;;;;5134214;27;20370;-43
2023/01/15 02:26:47;;;;;;;11.38;2.00;;;6.20;1.00;;;;;;5136527;27;20085;-43
2023/01/15 02:29:19;;;;;;;12.40;2.28;;;6.20;99.90;;;;;;5136495;27;20104;-43
2023/01/15 02:31:51;;;;;;;13.38;2.58;;;6.30;1.00;;;;;;5118722;27;20126;-43
2023/01/15 02:34:26;;;;;;;14.48;1.63;;;6.20;1.00;;;;;;5117309;27;20541;-43
2023/01/15 02:37:07;;;;;;;11.63;2.25;;;6.20;1.00;;;;;;5136361;27;20076;-43
2023/01/15 02:39:37;;;;;;;13.18;1.73;;;6.20;1.00;;;;;;5135196;27;20054;-43
2023/01/15 02:42:07;;;;;;;14.10;2.13;;;6.20;1.00;;;;;;5133823;27;20042;-43
2023/01/15 02:44:36;;;;;;;17.45;2.28;;;6.20;55.90;;;;;;5136177;27;20058;-43
2023/01/15 02:47:04;;;;;;;16.73;3.58;;;6.20;1.00;;;;;;5136697;27;20039;-43
2023/01/15 02:49:31;;;;;;;12.23;2.50;;;6.20;1.00;;;;;;5136079;27;20130;-42
2023/01/15 02:52:02;;;;;;;10.95;2.50;;;6.20;99.90;;;;;;5117999;27;20039;-42
2023/01/15 02:54:34;;;;;;;10.63;2.42;;;6.20;1.00;;;;;;5135389;27;20057;-43
2023/01/15 02:57:02;;;;;;;11.77;1.73;;;6.20;58.20;;;;;;5136014;27;20134;-43
2023/01/15 02:59:36;;;;;;;8.38;2.08;;;6.20;1.00;;;;;;5117784;27;20489;-43
2023/01/15 03:02:07;;;;;;;18.85;3.10;;;6.20;99.90;;;;;;5134291;27;20077;-43
2023/01/15 03:04:51;;;;;;;10.68;1.67;;;6.20;99.90;;;;;;5136371;27;20466;-42
2023/01/15 03:07:38;;;;;;;12.02;2.17;;;6.30;99.90;;;;;;5135719;27;20129;-43
2023/01/15 03:10:05;;;;;;;14.07;2.22;;;6.30;1.00;;;;;;5117291;27;20135;-42
2023/01/15 03:13:06;;;;;;;15.98;2.92;;;6.10;1.00;;;;;;5100485;27;20079;-42
2023/01/15 03:18:28;;;;;;;10.27;1.77;;;5.60;94.90;;;;;;5134493;27;20043;-42
2023/01/15 03:20:59;;;;;;;18.33;2.13;;;5.40;1.00;;;;;;5117088;27;20051;-42
2023/01/15 03:23:26;;;;;;;17.75;2.15;;;5.50;1.00;;;;;;5117993;27;20401;-42
2023/01/15 03:25:52;;;;;;;11.52;2.05;;;5.50;1.00;;;;;;5134946;27;20502;-42
2023/01/15 03:28:25;;;;;;;17.67;1.90;;;5.50;1.00;;;;;;5098873;27;20070;-42
2023/01/15 03:30:51;;;;;;;17.45;2.60;;;5.60;99.90;;;;;;5117940;27;20050;-42
2023/01/15 03:33:17;;;;;;;18.00;3.85;;;5.70;99.90;;;;;;5117717;27;20474;-42
2023/01/15 03:35:43;;;;;;;8.63;2.13;;;5.70;99.90;;;;;;5116305;27;20088;-43
2023/01/15 03:38:14;;;;;;;14.15;2.53;;;5.70;99.90;;;;;;5135113;27;20043;-43
2023/01/15 03:41:05;;;;;;;10.27;2.33;;;5.80;1.00;;;;;;5135019;27;20047;-43
2023/01/15 03:43:49;;;;;;;16.40;3.05;;;5.80;99.90;;;;;;5133617;27;20138;-43
2023/01/15 03:46:54;;;;;;;14.70;2.65;;;6.00;1.00;;;;;;5132872;27;20047;-43
2023/01/15 03:49:38;;;;;;;15.90;2.63;;;6.00;94.00;;;;;;5114371;28;20051;-43
2023/01/15 03:52:15;;;;;;;12.13;2.15;;;6.00;1.00;;;;;;5126048;27;20062;-43
2023/01/15 03:54:52;;;;;;;13.48;2.67;;;5.90;1.00;;;;;;5135061;27;20054;-43
2023/01/15 03:57:39;;;;;;;16.25;2.22;;;5.90;97.60;;;;;;5133753;27;20054;-43
2023/01/15 04:00:37;;;;;;;15.40;2.17;;;5.90;99.90;;;;;;5134873;27;20118;-43
2023/01/15 04:03:08;;;;;;;11.23;2.03;;;5.80;1.00;;;;;;5133670;27;20051;-43
2023/01/15 04:05:35;;;;;;;11.38;1.83;;;5.80;76.00;;;;;;5134036;27;20392;-43
2023/01/15 04:08:02;;;;;;;18.05;3.45;;;5.80;99.90;;;;;;5134713;27;20047;-43
2023/01/15 04:10:28;;;;;;;10.50;1.95;;;5.80;99.90;;;;;;5116613;27;20059;-43
2023/01/15 04:12:54;;;;;;;16.17;1.75;;;5.90;1.00;;;;;;5133446;27;20358;-43
2023/01/15 04:15:20;;;;;;;11.35;2.25;;;5.80;1.00;;;;;;5100314;27;20047;-43
2023/01/15 04:17:45;;;;;;;15.90;2.30;;;5.80;1.00;;;;;;5116494;28;20556;-43
2023/01/15 04:20:11;;;;;;;9.85;1.92;;;5.90;1.00;;;;;;5133525;28;20114;-43
2023/01/15 04:22:37;;;;;;;11.32;2.15;;;5.90;1.00;;;;;;5100060;28;20362;-43
2023/01/15 04:25:05;;;;;;;11.25;2.20;;;5.90;99.90;;;;;;5134860;28;20050;-44
2023/01/15 04:27:31;;;;;;;15.52;4.28;;;5.90;1.00;;;;;;5115991;28;20070;-43
2023/01/15 04:29:57;;;;;;;20.40;2.58;;;5.80;1.00;;;;;;5117004;28;20075;-43
2023/01/15 04:32:22;;;;;;;12.40;2.00;;;5.80;12.70;;;;;;5134469;28;20392;-43
2023/01/15 04:34:49;;;;;;;15.93;2.75;;;5.80;1.00;;;;;;5133253;28;20463;-43
2023/01/15 04:37:16;;;;;;;17.58;2.00;;;5.70;1.00;;;;;;5134779;28;20082;-43
2023/01/15 04:39:42;;;;;;;10.27;2.45;;;5.80;1.00;;;;;;5134472;28;20169;-43
2023/01/15 04:44:57;;;;;;;15.75;2.58;;;5.80;99.90;;;;;;5139021;27;20055;-43
2023/01/15 04:47:23;;;;;;;10.57;1.80;;;5.80;99.90;;;;;;5138467;27;20473;-42
2023/01/15 04:49:48;;;;;;;11.48;2.20;;;5.70;1.00;;;;;;5101913;27;20061;-44
2023/01/15 04:52:14;;;;;;;15.88;2.85;;;5.70;99.90;;;;;;5138644;27;20111;-43
2023/01/15 04:54:40;;;;;;;15.02;3.33;;;5.70;1.00;;;;;;5138379;27;20049;-43
2023/01/15 04:57:06;;;;;;;12.40;2.53;;;5.70;99.90;;;;;;5103332;27;20126;-43
2023/01/15 04:59:32;;;;;;;12.65;2.20;;;5.70;99.90;;;;;;5120355;27;20050;-43
2023/01/15 05:01:58;;;;;;;9.57;1.63;;;5.70;99.90;;;;;;5137430;27;20043;-43
2023/01/15 05:04:24;;;;;;;14.85;2.33;;;5.80;99.90;;;;;;5119861;27;20047;-42
2023/01/15 05:06:50;;;;;;;14.60;2.67;;;5.80;99.90;;;;;;5138119;27;20046;-43
2023/01/15 05:09:15;;;;;;;8.85;2.20;;;5.70;99.90;;;;;;5119945;27;20047;-43
2023/01/15 05:11:41;;;;;;;12.10;1.75;;;5.60;99.90;;;;;;5120414;27;20350;-42
2023/01/15 05:14:07;;;;;;;12.23;2.42;;;5.70;99.90;;;;;;5138019;27;20047;-43
2023/01/15 05:16:34;;;;;;;11.63;2.78;;;5.60;1.00;;;;;;5135695;27;20043;-44
2023/01/15 05:19:01;;;;;;;12.32;2.08;;;5.60;99.90;;;;;;5119755;27;20045;-43
2023/01/15 05:21:33;;;;;;;12.80;2.33;;;5.70;99.90;;;;;;5119664;27;20043;-42
2023/01/15 05:24:00;;;;;;;16.20;3.10;;;5.60;99.90;;;;;;5137835;27;20043;-43
2023/01/15 05:26:27;;;;;;;10.23;2.45;;;5.60;99.90;;;;;;5118505;27;20059;-43
2023/01/15 05:28:55;;;;;;;9.75;2.05;;;5.60;99.90;;;;;;5133981;27;20054;-43
2023/01/15 05:31:22;;;;;;;12.40;1.73;;;5.60;99.90;;;;;;5136525;27;20086;-43
2023/01/15 05:33:49;;;;;;;9.45;2.20;;;5.50;99.90;;;;;;5135670;27;20484;-43
2023/01/15 05:36:19;;;;;;;12.30;2.20;;;5.50;99.90;;;;;;5136749;27;20041;-43
2023/01/15 05:38:45;;;;;;;15.98;2.67;;;5.50;65.00;;;;;;5137207;27;20512;-43
2023/01/15 05:44:00;;;;;;;14.43;3.40;;;5.50;1.00;;;;;;5137361;27;20146;-43
2023/01/15 05:46:26;;;;;;;14.05;2.97;;;5.20;1.00;;;;;;5118272;27;20043;-43
2023/01/15 05:48:52;;;;;;;17.60;3.17;;;5.30;1.00;;;;;;5136169;27;20371;-43
2023/01/15 05:51:18;;;;;;;12.52;2.08;;;5.30;1.00;;;;;;5137107;27;20065;-43
2023/01/15 05:53:44;;;;;;;15.85;2.45;;;5.40;99.90;;;;;;5136442;27;20047;-42
2023/01/15 05:56:09;;;;;;;16.52;2.75;;;5.30;99.90;;;;;;5118885;27;20107;-43
2023/01/15 05:58:35;;;;;;;18.05;2.60;;;5.30;1.00;;;;;;5117489;27;20051;-43
2023/01/15 06:01:09;;;;;;;12.60;2.55;;;5.20;1.00;;;;;;5100934;27;20429;-43
2023/01/15 06:03:34;;;;;;;;;;;5.20;99.90;;;;;;5116921;28;20058;-43
2023/01/15 06:06:00;;;;;;;11.38;2.72;;;5.20;99.90;;;;;;5130628;27;19919;-43
2023/01/15 06:08:26;;;;;;;11.90;1.85;;;5.30;99.90;;;;;;5136952;27;20051;-43
2023/01/15 06:10:52;;;;;;;8.82;2.10;;;5.30;99.90;;;;;;5102429;27;20103;-43
2023/01/15 06:13:18;;;;;;;9.00;2.13;;;5.20;99.90;;;;;;5119493;27;20039;-43
2023/01/15 06:15:44;;;;;;;14.77;2.42;;;5.20;99.90;;;;;;5136324;27;20132;-43
2023/01/15 06:18:10;;;;;;;15.95;2.58;;;5.20;99.90;;;;;;5135680;27;20068;-43
2023/01/15 06:20:37;;;;;;;15.88;2.15;;;5.20;99.90;;;;;;5118610;27;20093;-43
2023/01/15 06:23:02;;;;;;;11.77;2.05;;;5.20;99.90;;;;;;5136594;27;20083;-43
2023/01/15 06:25:28;;;;;;;12.23;1.75;;;5.20;99.90;;;;;;5136472;27;20082;-43
2023/01/15 06:27:54;;;;;;;23.38;3.65;;;5.30;99.90;;;;;;5118269;27;20078;-42
2023/01/15 06:30:20;;;;;;;11.20;2.00;;;5.30;99.90;;;;;;5137314;27;20043;-43
2023/01/15 06:32:46;;;;;;;11.40;1.83;;;5.30;99.90;;;;;;5116862;27;20046;-43
2023/01/15 06:35:13;;;;;;;9.10;2.65;;;5.20;25.90;;;;;;5118127;27;20051;-43
2023/01/15 06:37:38;;;;;;;10.07;2.47;;;5.30;99.90;;;;;;5117596;27;20079;-43
2023/01/15 06:40:05;;;;;;;10.88;2.05;;;5.50;1.00;;;;;;5136014;27;20126;-43
2023/01/15 06:47:59;;;;;;;17.48;2.13;;;5.40;91.40;;;;;;5135227;27;20051;-43
2023/01/15 06:50:25;;;;;;;9.02;2.28;;;5.40;71.20;;;;;;5117787;27;20176;-42
2023/01/15 06:52:51;;;;;;;8.30;2.10;;;5.40;1.00;;;;;;5136064;27;20046;-43
2023/01/15 06:55:17;;;;;;;8.00;1.70;;;5.40;99.90;;;;;;5117868;27;20047;-43
2023/01/15 06:57:43;;;;;;;8.63;1.33;;;5.50;99.90;;;;;;5135985;27;20135;-42
2023/01/15 07:00:11;;;;;;;15.85;2.97;;;5.50;99.90;;;;;;5135884;27;20046;-43
2023/01/15 07:02:37;;;;;;;12.50;1.65;;;5.40;99.90;;;;;;5116376;27;20473;-42
2023/01/15 07:05:03;;;;;;;8.02;1.67;;;5.40;1.00;;;;;;5135209;27;20397;-43
2023/01/15 07:07:29;;;;;;;8.95;2.08;;;5.40;1.00;;;;;;5133094;27;20086;-42
2023/01/15 07:09:55;;;;;;;17.00;2.13;;;5.40;99.90;;;;;;5136273;27;20422;-42
2023/01/15 07:12:21;;;;;;;16.05;2.45;;;5.40;1.00;;;;;;5135631;27;20108;-43
2023/01/15 07:14:47;;;;;;;16.70;2.58;;;5.30;1.00;;;;;;5136167;27;20078;-42
2023/01/15 07:17:12;;;;;;;12.68;2.25;;;5.30;1.00;;;;;;5134496;27;20472;-42
2023/01/15 07:19:38;;;;;;;16.08;2.28;;;5.40;99.90;;;;;;5135500;27;20087;-43
2023/01/15 07:22:05;;;;;;;11.65;1.63;;;5.40;99.90;;;;;;5134503;27;20047;-42
2023/01/15 07:24:31;;;;;;;12.93;2.30;;;5.40;1.00;;;;;;5133183;27;20047;-43
2023/01/15 07:26:57;;;;;;;7.70;1.35;;;5.40;99.90;;;;;;5135352;27;20080;-43
2023/01/15 07:29:22;;;;;;;6.75;1.48;;;5.40;99.90;;;;;;5135630;27;20039;-42
2023/01/15 07:31:50;;;;;;;8.25;1.85;;;5.50;99.90;;;;;;5135276;27;20084;-42
2023/01/15 07:34:15;;;;;;;16.77;2.63;;;5.50;99.90;;;;;;5116008;27;20051;-43
2023/01/15 07:36:41;;;;;;;11.75;2.05;;;5.40;99.90;;;;;;5135309;27;20530;-43
2023/01/15 07:39:09;;;;;;;12.45;2.13;;;5.50;1.00;;;;;;5134808;27;20110;-43
2023/01/15 07:50:01;;;;;;;12.68;2.05;;;5.40;93.50;;;;;;5135752;27;20051;-42
2023/01/15 07:52:27;;;;;;;9.23;1.92;;;5.40;1.00;;;;;;5134963;27;20047;-42
2023/01/15 07:54:53;;;;;;;12.02;2.20;;;5.40;99.90;;;;;;5133749;27;20055;-42
2023/01/15 07:57:20;;;;;;;11.55;2.45;;;5.40;1.00;;;;;;5116442;27;20051;-42
2023/01/15 07:59:47;;;;;;;4.72;0.90;;;5.30;69.90;;;;;;5133629;27;20705;-42
2023/01/15 08:02:13;;;;;;;10.02;1.80;;;5.30;99.90;;;;;;5134792;27;20046;-42
2023/01/15 08:04:39;;;;;;;11.73;1.90;;;5.20;99.90;;;;;;5116637;27;20090;-42
2023/01/15 08:07:04;;;;;;;8.57;1.33;;;5.20;99.90;;;;;;5116479;27;20043;-42
2023/01/15 08:09:30;;;;;;;14.05;1.73;;;5.20;99.90;;;;;;5133947;27;20057;-42
2023/01/15 08:17:31;;;;;;;12.00;2.30;;;5.30;99.90;;;;;;5115804;28;20446;-42
2023/01/15 08:19:57;;;;;;;10.55;1.77;;;5.30;99.90;;;;;;5134560;28;20047;-42
2023/01/15 08:22:23;;;;;;;10.23;1.80;;;5.30;99.90;;;;;;5134549;28;20130;-42
2023/01/15 08:24:49;;;;;;;16.15;3.10;;;5.20;99.90;;;;;;5133562;28;20404;-42
2023/01/15 08:27:15;;;;;;;13.90;2.60;;;5.20;99.90;;;;;;5115575;28;20054;-42
2023/01/15 08:29:41;;;;;;;11.80;2.13;;;5.20;99.90;;;;;;5116321;28;20050;-42
2023/01/15 08:32:07;;;;;;;8.60;1.85;;;5.30;99.90;;;;;;5116241;28;20046;-42
2023/01/15 08:34:33;;;;;;;13.50;2.28;;;5.40;99.90;;;;;;5135132;28;20146;-42
2023/01/15 08:36:59;;;;;;;8.85;1.40;;;5.40;99.90;;;;;;5132910;28;20471;-42
2023/01/15 08:39:28;;;;;;;9.60;2.05;;;5.50;99.90;;;;;;5115634;28;20043;-42
2023/01/15 08:41:55;;;;;;;10.70;1.92;;;5.60;99.90;;;;;;5083069;28;20486;-42
2023/01/15 08:44:22;;;;;;;10.85;1.83;;;5.60;92.10;;;;;;5134371;28;20051;-42
2023/01/15 08:46:48;;;;;;;13.05;2.45;;;5.60;99.90;;;;;;5134410;28;20051;-42
2023/01/15 08:49:14;;;;;;;8.73;1.88;;;5.50;99.90;;;;;;5135182;28;20035;-42
2023/01/15 08:51:40;;;;;;;8.98;1.50;;;5.50;99.90;;;;;;5135159;28;20122;-42
2023/01/15 08:54:06;;;;;;;10.50;2.25;;;5.50;99.90;;;;;;5115582;28;20051;-42
2023/01/15 08:56:32;;;;;;;10.63;2.90;;;5.40;1.00;;;;;;5116621;28;20047;-42
2023/01/15 08:58:58;;;;;;;10.88;1.92;;;5.50;99.90;;;;;;5135063;28;20039;-42
2023/01/15 09:01:23;;;;;;;11.02;1.67;;;5.40;99.90;;;;;;5132964;28;20491;-42
2023/01/15 09:03:49;;;;;;;11.50;2.65;;;5.30;1.00;;;;;;5134228;28;20057;-42
2023/01/15 09:06:15;;;;;;;12.85;1.80;;;5.10;1.00;;;;;;5134213;28;20397;-42
2023/01/15 09:08:40;;;;;;;10.50;2.28;;;5.00;99.90;;;;;;5115205;28;20055;-41
2023/01/15 09:11:11;;;;;;;14.68;3.22;;;5.00;99.90;;;;;;5132916;28;20039;-42
2023/01/15 09:13:37;;;;;;;12.63;2.70;;;5.00;99.90;;;;;;5133366;28;20101;-42
2023/01/15 09:16:05;;;;;;;14.43;2.80;;;4.90;99.90;;;;;;5134653;28;20465;-42
2023/01/15 09:18:31;;;;;;;9.10;2.45;;;4.90;99.90;;;;;;5097747;28;20122;-42
2023/01/15 09:20:56;;;;;;;11.23;1.95;;;5.00;99.90;;;;;;5115637;28;20050;-42
2023/01/15 09:23:23;;;;;;;10.68;1.80;;;5.00;99.90;;;;;;5133493;28;20051;-41
2023/01/15 09:25:57;;;;;;;13.85;2.80;;;5.00;99.90;;;;;;5133932;28;20062;-42
2023/01/15 09:28:23;;;;;;;9.38;2.38;;;5.20;1.00;;;;;;5136967;27;20039;-42
2023/01/15 09:30:49;;;;;;;9.27;2.15;;;5.30;1.00;;;;;;5137719;27;20555;-42
2023/01/15 09:33:15;;;;;;;14.35;2.30;;;5.40;1.00;;;;;;5137642;27;20125;-42
2023/01/15 09:35:44;;;;;;;9.23;1.77;;;5.40;42.10;;;;;;5120032;27;20097;-42
2023/01/15 09:38:15;;;;;;;13.05;2.47;;;5.40;99.90;;;;;;5136469;27;20043;-42
2023/01/15 09:40:59;;;;;;;12.18;1.70;;;5.40;1.00;;;;;;5119333;27;20047;-42
2023/01/15 09:43:53;;;;;;;15.05;2.08;;;5.50;98.90;;;;;;5119219;27;20122;-42
2023/01/15 09:46:22;;;;;;;10.38;1.70;;;5.60;1.00;;;;;;5135749;27;20054;-42
2023/01/15 09:49:03;;;;;;;12.65;2.10;;;5.70;1.00;;;;;;5116855;28;20130;-42
2023/01/15 09:51:51;;;;;;;14.80;2.80;;;5.80;28.60;;;;;;5116779;28;20083;-42
2023/01/15 09:55:02;;;;;;;12.68;2.45;;;5.90;1.00;;;;;;5127238;27;20139;-42
2023/01/15 09:57:29;;;;;;;9.20;1.67;;;6.00;1.00;;;;;;5119281;27;20582;-41
2023/01/15 10:00:02;;;;;;;11.77;2.10;;;6.10;99.90;;;;;;5137180;27;20070;-42
2023/01/15 10:02:47;;;;;;;13.00;2.05;;;6.10;1.00;;;;;;5137645;27;20061;-42
2023/01/15 10:05:34;;;;;;;13.43;2.83;;;5.90;99.90;;;;;;5137949;27;20043;-43
2023/01/15 10:08:35;;;;;;;13.65;1.95;;;6.00;1.00;;;;;;5135854;27;20051;-42
2023/01/15 10:11:21;;;;;;;10.10;2.17;;;6.10;99.90;;;;;;5114624;27;20185;-42
2023/01/15 10:13:54;;;;;;;10.38;2.10;;;6.20;1.00;;;;;;5134844;27;20050;-42
2023/01/15 10:16:32;;;;;;;15.63;3.25;;;6.20;99.90;;;;;;5119077;27;20047;-42
2023/01/15 10:19:01;;;;;;;10.70;1.90;;;6.30;99.90;;;;;;5137371;27;20061;-41
2023/01/15 10:22:05;;;;;;;7.05;1.75;;;6.30;1.00;;;;;;5136647;27;20370;-42
2023/01/15 10:24:37;;;;;;;13.35;2.45;;;6.30;99.90;;;;;;5061654;27;20489;-42
2023/01/15 10:27:25;;;;;;;11.98;2.22;;;6.30;99.90;;;;;;5136623;27;20054;-41
2023/01/15 10:30:22;;;;;;;11.82;2.72;;;6.20;99.90;;;;;;5118042;27;20134;-42
2023/01/15 10:32:55;;;;;;;15.65;2.55;;;6.00;1.00;;;;;;5137109;27;20043;-42
2023/01/15 10:35:32;;;;;;;12.88;2.22;;;5.90;22.70;;;;;;5117733;27;20055;-42
2023/01/15 10:38:16;;;;;;;15.10;2.75;;;6.10;1.00;;;;;;5137267;27;20382;-41
2023/01/15 10:41:16;;;;;;;12.63;2.22;;;6.20;99.90;;;;;;5135626;27;20131;-41
2023/01/15 10:43:56;;;;;;;13.25;2.70;;;6.20;99.90;;;;;;5136439;27;20082;-42
2023/01/15 10:46:26;;;;;;;10.60;2.80;;;6.40;89.30;;;;;;5135243;27;20342;-41
2023/01/15 10:49:05;;;;;;;15.77;3.13;;;6.70;1.00;;;;;;5116135;27;20047;-42
2023/01/15 10:51:40;;;;;;;13.63;3.20;;;6.80;1.00;;;;;;5114792;27;20070;-42
2023/01/15 10:54:34;;;;;;;14.65;3.10;;;6.80;1.00;;;;;;5114838;27;20047;-42
2023/01/15 10:57:12;;;;;;;12.55;2.88;;;7.00;99.90;;;;;;5136527;27;20057;-42
2023/01/15 11:00:04;;;;;;;11.88;2.30;;;7.00;99.90;;;;;;5115882;27;20116;-43
2023/01/15 11:02:42;;;;;;;11.77;3.13;;;7.10;99.90;;;;;;5128614;27;20184;-42
2023/01/15 11:05:15;;;;;;;13.20;2.92;;;7.10;99.90;;;;;;5136734;27;20047;-41
2023/01/15 11:07:43;;;;;;;;;;;7.20;4.20;;;;;;5118451;27;20108;-42
2023/01/15 11:10:14;;;;;;;12.98;2.50;;;7.30;1.00;;;;;;5116766;27;19923;-42
2023/01/15 11:21:23;;;;;;;16.38;2.85;;;7.10;99.90;;;;;;5134344;27;20090;-42
2023/01/15 11:23:49;;;;;;;6.90;1.80;;;7.10;99.90;;;;;;5135395;27;20051;-41
2023/01/15 11:26:30;;;;;;;11.00;2.60;;;7.10;99.90;;;;;;5135792;27;20043;-42
2023/01/15 11:28:58;;;;;;;11.88;2.47;;;7.10;99.90;;;;;;5118153;27;20086;-42
2023/01/15 11:31:35;;;;;;;11.88;2.75;;;7.10;99.90;;;;;;5135321;27;20557;-42
2023/01/15 11:34:03;;;;;;;12.80;2.35;;;7.10;99.90;;;;;;5134988;27;20481;-42
2023/01/15 11:36:31;;;;;;;15.30;2.70;;;7.00;99.90;;;;;;5117467;27;20057;-42
2023/01/15 11:38:57;;;;;;;10.10;2.38;;;7.00;99.90;;;;;;5135241;27;20054;-41
2023/01/15 11:52:38;;;;;;;20.10;3.92;;;6.40;1.00;;;;;;5135064;27;20043;-40
2023/01/15 11:55:11;;;;;;;16.58;3.80;;;6.10;1.00;;;;;;5134098;27;20038;-39
2023/01/15 11:57:38;;;;;;;19.70;2.88;;;5.90;1.00;;;;;;5135008;27;20086;-42
2023/01/15 12:00:06;;;;;;;19.65;4.47;;;5.60;1.00;;;;;;5135694;27;20089;-40
2023/01/15 12:02:48;;;;;;;24.80;3.97;;;5.30;99.90;;;;;;5134206;27;20039;-40
2023/01/15 12:05:17;;;;;;;22.88;4.75;;;5.20;1.00;;;;;;5116688;28;20466;-39
2023/01/15 12:07:45;;;;;;;20.58;4.00;;;5.10;1.00;;;;;;5134877;27;20051;-40
2023/01/15 12:10:18;;;;;;;28.05;5.88;;;5.00;99.90;;;;;;5116683;27;20039;-39
2023/01/15 12:13:35;;;;;;;21.85;5.25;;;5.10;99.90;;;;;;5117045;27;20059;-38
2023/01/15 12:16:41;;;;;;;17.23;3.55;;;4.10;99.90;;;;;;5110895;27;20538;-39
2023/01/15 12:19:36;;;;;;;12.13;2.70;;;4.80;99.90;;;;;;5134759;27;20550;-35
2023/01/15 12:22:24;;;;;;;12.73;2.60;;;4.30;99.90;;;;;;5133792;28;20031;-34
2023/01/15 12:25:11;;;;;;;10.00;1.70;;;4.60;99.90;;;;;;5116943;28;20043;-34
2023/01/15 12:27:54;;;;;;;4.35;0.90;;;4.20;99.90;;;;;;5116479;28;20090;-34
2023/01/15 12:30:19;;;;;;;5.43;0.85;;;4.50;99.90;;;;;;5133573;28;20492;-37
2023/01/15 12:32:57;;;;;;;7.07;0.98;;;3.90;99.90;;;;;;5135426;28;20046;-37
2023/01/15 12:35:36;;;;;;;6.53;1.10;;;3.90;99.90;;;;;;5134889;28;20095;-34
2023/01/15 12:38:19;;;;;;;7.75;1.73;;;3.80;99.90;;;;;;5133533;28;20079;-35
2023/01/15 12:40:59;;;;;;;10.73;2.88;;;4.70;99.90;;;;;;5134509;28;20035;-35
2023/01/15 12:46:27;;;;;;;13.77;2.45;;;4.70;99.90;;;;;;5119484;28;20051;-33
2023/01/15 12:49:02;;;;;;;8.00;1.40;;;4.80;99.90;;;;;;5133369;28;20051;-34
2023/01/15 12:51:58;;;;;;;10.25;1.95;;;4.20;99.90;;;;;;5134428;28;20089;-34
2023/01/15 12:54:30;;;;;;;12.82;2.42;;;4.70;99.90;;;;;;5115295;28;20050;-36
2023/01/15 12:57:23;;;;;;;11.93;2.05;;;4.70;99.90;;;;;;5134709;28;20051;-34
2023/01/15 13:00:23;;;;;;;9.68;2.13;;;4.60;99.90;;;;;;5116043;28;20485;-35
2023/01/15 13:03:29;;;;;;;9.82;1.60;;;4.50;99.90;;;;;;5135250;27;20437;-35
2023/01/15 13:06:00;;;;;;;16.83;3.05;;;4.60;99.90;;;;;;5047776;28;20053;-34
2023/01/15 13:08:49;;;;;;;9.00;2.00;;;4.30;99.90;;;;;;5020778;28;20081;-34
2023/01/15 13:11:15;;;;;;;21.65;2.60;;;4.40;99.90;;;;;;5094296;28;20565;-39
2023/01/15 13:13:42;;;;;;;9.75;1.98;;;4.50;99.90;;;;;;5117532;28;20134;-35
2023/01/15 13:16:23;;;;;;;17.33;3.05;;;4.40;99.90;;;;;;5117484;28;20090;-34
2023/01/15 13:18:57;;;;;;;17.48;3.22;;;4.50;99.90;;;;;;5118027;28;20123;-38
2023/01/15 13:21:25;;;;;;;13.25;3.13;;;4.70;99.90;;;;;;5132954;27;20043;-35
2023/01/15 13:23:51;;;;;;;15.77;2.28;;;4.70;99.90;;;;;;5137873;27;20099;-38
2023/01/15 13:26:44;;;;;;;15.07;2.65;;;4.60;99.90;;;;;;5119708;27;20055;-35
2023/01/15 13:29:19;;;;;;;14.48;2.20;;;4.60;99.90;;;;;;5117594;28;20551;-35
2023/01/15 13:32:11;;;;;;;9.55;1.80;;;4.30;99.90;;;;;;5112630;27;20400;-40
2023/01/15 13:34:56;;;;;;;11.63;1.90;;;4.60;99.90;;;;;;5119587;27;20485;-35
2023/01/15 13:37:30;;;;;;;9.43;1.55;;;4.80;99.90;;;;;;5135845;27;20051;-38
2023/01/15 13:40:10;;;;;;;3.90;0.93;;;4.30;99.90;;;;;;5137918;27;20046;-35
2023/01/15 13:42:39;;;;;;;4.68;0.75;;;3.70;99.90;;;;;;5120514;27;20035;-35
2023/01/15 13:45:30;;;;;;;3.97;0.50;;;4.10;99.90;;;;;;5119378;27;20091;-35
2023/01/15 13:48:28;;;;;;;3.35;0.68;;;3.60;99.90;;;;;;5137449;27;20047;-34
2023/01/15 13:50:56;;;;;;;3.78;0.80;;;3.80;99.90;;;;;;5120471;27;20058;-34
2023/01/15 13:53:31;;;;;;;4.18;0.60;;;3.80;99.90;;;;;;5137274;27;20074;-33
2023/01/15 13:56:04;;;;;;;3.70;0.45;;;3.90;99.90;;;;;;5137316;27;20047;-36
2023/01/15 13:58:33;;;;;;;;;;;3.70;99.90;;;;;;5138229;27;20043;-34
2023/01/15 14:01:19;;;;;;;5.75;0.57;;;3.70;99.90;;;;;;5137692;27;19924;-33
2023/01/15 14:04:03;;;;;;;9.90;1.27;;;3.90;99.90;;;;;;5137200;27;20082;-34
2023/01/15 14:06:41;;;;;;;9.40;1.67;;;4.00;99.90;;;;;;5135721;27;20062;-34
2023/01/15 14:09:17;;;;;;;12.25;1.95;;;4.00;99.90;;;;;;5118844;27;20549;-35
2023/01/15 14:11:55;;;;;;;10.85;2.10;;;4.00;99.90;;;;;;5136526;27;20393;-35
2023/01/15 14:14:59;;;;;;;12.13;2.53;;;4.20;99.90;;;;;;5135674;27;20507;-38